Time;durP1;ratioP1;P1;durP2;ratioP2;P2;SDS_P1;SDS_P2;PMS_P1;PMS_P2;Temp;Humidity;BMP_temperature;BMP_pressure;BME280_temperature;BME280_humidity;BME280_pressure;Samples;Min_cycle;Max_cycle;Signal;HPM_P1;HPM_P2
2023/07/04 00:00:58;;;;;;;10.18;4.22;;;;;;;11.60;100.00;100366.28;5004535;28;20612;-50
2023/07/04 00:03:25;;;;;;;8.77;3.85;;;;;;;11.56;100.00;100367.41;5007782;28;20327;-54
2023/07/04 00:05:54;;;;;;;6.40;3.65;;;;;;;11.62;100.00;100367.09;5007193;28;20173;-52
2023/07/04 00:08:21;;;;;;;6.97;3.70;;;;;;;11.54;100.00;100367.50;5004101;28;20193;-47
2023/07/04 00:10:47;;;;;;;6.75;3.50;;;;;;;11.59;100.00;100369.03;5006763;28;20252;-47
2023/07/04 00:13:14;;;;;;;11.50;3.75;;;;;;;11.60;100.00;100374.34;5006651;28;20213;-49
2023/07/04 00:15:59;;;;;;;11.40;3.97;;;;;;;11.57;100.00;100365.56;5010134;28;20192;-51
2023/07/04 00:18:28;;;;;;;6.05;2.80;;;;;;;11.62;100.00;100374.28;5003276;28;20192;-49
2023/07/04 00:20:56;;;;;;;5.35;2.70;;;;;;;11.62;100.00;100375.16;4993006;28;20258;-48
2023/07/04 00:23:33;;;;;;;5.53;2.42;;;;;;;11.73;100.00;100363.88;5002347;28;20208;-47
2023/07/04 00:26:06;;;;;;;7.25;2.90;;;;;;;11.63;100.00;100394.78;5002387;28;20203;-48
2023/07/04 00:28:33;;;;;;;5.18;2.60;;;;;;;11.63;100.00;100374.22;5002457;28;20189;-48
2023/07/04 00:31:03;;;;;;;9.15;2.42;;;;;;;11.57;100.00;100395.97;5000870;28;20188;-48
2023/07/04 00:33:30;;;;;;;7.05;2.42;;;;;;;11.55;100.00;100388.00;4982242;28;20208;-54
2023/07/04 00:36:07;;;;;;;5.60;2.13;;;;;;;11.57;100.00;100382.56;4995672;28;20799;-50
2023/07/04 00:38:35;;;;;;;5.30;2.20;;;;;;;11.61;100.00;100396.69;4996030;28;20200;-48
2023/07/04 00:41:09;;;;;;;3.58;2.10;;;;;;;11.56;100.00;100386.16;5006155;28;20183;-47
2023/07/04 00:43:57;;;;;;;5.55;1.88;;;;;;;11.57;100.00;100390.63;5004279;28;20905;-53
2023/07/04 00:46:37;;;;;;;4.97;2.38;;;;;;;11.47;100.00;100394.69;5004193;28;20242;-49
2023/07/04 00:49:06;;;;;;;7.90;2.20;;;;;;;11.47;100.00;100383.94;5005801;28;20355;-51
2023/07/04 00:51:34;;;;;;;6.35;2.08;;;;;;;11.42;100.00;100394.91;5000100;28;20191;-49
2023/07/04 00:54:00;;;;;;;5.53;2.03;;;;;;;11.43;100.00;100396.63;5007244;28;20632;-45
2023/07/04 00:56:39;;;;;;;4.32;1.98;;;;;;;11.34;100.00;100397.94;5040706;23;20286;-48
2023/07/04 00:59:20;;;;;;;9.00;2.10;;;;;;;11.36;100.00;100405.06;5009135;28;20188;-49
2023/07/04 01:02:00;;;;;;;7.22;2.20;;;;;;;11.36;100.00;100400.56;5006642;28;20674;-46
2023/07/04 01:04:33;;;;;;;6.68;2.15;;;;;;;11.39;100.00;100399.53;5009893;28;20204;-49
2023/07/04 01:07:24;;;;;;;9.95;2.25;;;;;;;11.37;100.00;100396.97;5009885;28;20181;-51
2023/07/04 01:10:16;;;;;;;3.25;1.55;;;;;;;11.33;100.00;100388.19;5009089;28;20181;-47
2023/07/04 01:12:45;;;;;;;4.35;2.10;;;;;;;11.29;100.00;100401.81;5009794;28;20177;-49
2023/07/04 01:15:11;;;;;;;3.50;1.65;;;;;;;11.33;100.00;100406.09;5013154;28;20192;-48
2023/07/04 01:17:43;;;;;;;3.58;1.40;;;;;;;11.31;100.00;100400.78;5013230;28;20180;-48
2023/07/04 01:20:25;;;;;;;4.15;1.50;;;;;;;11.40;100.00;100414.72;5013352;28;20173;-48
2023/07/04 01:23:34;;;;;;;5.88;1.77;;;;;;;11.35;100.00;100409.56;4996077;28;20212;-48
2023/07/04 01:26:47;;;;;;;2.72;1.20;;;;;;;11.28;100.00;100413.47;5002248;28;20280;-47
2023/07/04 01:29:31;;;;;;;1.88;1.20;;;;;;;11.26;100.00;100426.06;4992600;28;20192;-49
2023/07/04 01:32:04;;;;;;;1.85;1.20;;;;;;;11.36;100.00;100424.72;4993424;28;20173;-48
2023/07/04 01:34:34;;;;;;;5.50;1.80;;;;;;;11.33;100.00;100422.19;4994389;28;20550;-50
2023/07/04 01:37:04;;;;;;;3.45;2.13;;;;;;;11.31;100.00;100421.38;5012956;28;20554;-47
2023/07/04 01:39:30;;;;;;;4.75;1.88;;;;;;;11.29;100.00;100424.13;5013024;28;20192;-49
2023/07/04 01:42:05;;;;;;;6.88;2.00;;;;;;;11.27;100.00;100423.34;4979011;28;20208;-48
2023/07/04 01:44:38;;;;;;;4.53;1.70;;;;;;;11.31;100.00;100435.66;5012648;28;20204;-51
2023/07/04 01:50:51;;;;;;;7.18;2.53;;;;;;;11.25;100.00;100429.72;5005265;28;20560;-48
2023/07/04 01:53:17;;;;;;;6.10;2.10;;;;;;;11.21;100.00;100423.63;5011725;28;20196;-49
2023/07/04 01:55:42;;;;;;;8.05;2.25;;;;;;;11.22;100.00;100424.50;4991783;28;20189;-49
2023/07/04 01:58:08;;;;;;;8.80;2.50;;;;;;;11.24;100.00;100430.66;4990934;28;20683;-50
2023/07/04 02:00:33;;;;;;;5.22;1.92;;;;;;;11.28;100.00;100434.91;4992125;28;20484;-47
2023/07/04 02:02:59;;;;;;;10.50;1.98;;;;;;;11.31;100.00;100440.16;4991881;28;20205;-49
2023/07/04 02:05:26;;;;;;;6.53;1.80;;;;;;;11.28;100.00;100437.59;4990550;28;20291;-47
2023/07/04 02:07:51;;;;;;;12.07;2.17;;;;;;;11.27;100.00;100443.94;4991100;28;20280;-45
2023/07/04 02:10:17;;;;;;;5.03;2.05;;;;;;;11.27;100.00;100438.56;4991783;28;20233;-48
2023/07/04 02:12:42;;;;;;;7.50;2.17;;;;;;;11.35;100.00;100436.41;4974587;28;20669;-46
2023/07/04 02:15:08;;;;;;;7.72;2.25;;;;;;;11.24;100.00;100447.63;4991611;28;20284;-46
2023/07/04 02:17:34;;;;;;;5.47;2.67;;;;;;;11.31;100.00;100446.38;4991954;28;20243;-46
2023/07/04 02:19:59;;;;;;;5.82;2.20;;;;;;;11.26;100.00;100443.06;4991896;28;20647;-50
2023/07/04 02:22:25;;;;;;;5.03;2.53;;;;;;;11.25;100.00;100432.41;4992011;28;20255;-46
2023/07/04 02:24:50;;;;;;;6.95;2.65;;;;;;;11.17;100.00;100445.28;4991342;28;20350;-46
2023/07/04 02:27:16;;;;;;;6.13;2.20;;;;;;;11.19;100.00;100438.03;4991505;28;20553;-47
2023/07/04 02:29:46;;;;;;;9.30;2.20;;;;;;;11.19;100.00;100451.44;4990055;28;20268;-49
2023/07/04 02:32:12;;;;;;;8.50;2.42;;;;;;;11.18;100.00;100450.59;4991396;28;20181;-46
2023/07/04 02:34:37;;;;;;;5.85;2.22;;;;;;;11.15;100.00;100456.13;4991439;28;20694;-47
2023/07/04 02:37:03;;;;;;;6.65;2.00;;;;;;;11.13;100.00;100449.94;4991518;28;20189;-48
2023/07/04 02:39:29;;;;;;;7.20;2.40;;;;;;;11.12;100.00;100441.00;4991595;28;20201;-45
2023/07/04 02:41:55;;;;;;;8.95;2.50;;;;;;;11.17;100.00;100450.66;4989953;28;20201;-47
2023/07/04 02:44:21;;;;;;;8.63;2.53;;;;;;;11.11;100.00;100455.38;4991015;28;20265;-45
2023/07/04 02:46:46;;;;;;;5.38;2.33;;;;;;;11.10;100.00;100466.16;4991570;28;20273;-45
2023/07/04 02:49:12;;;;;;;9.20;2.45;;;;;;;11.11;100.00;100457.19;4989649;28;20204;-45
2023/07/04 02:51:38;;;;;;;6.47;2.45;;;;;;;11.14;100.00;100454.34;4991183;28;20531;-45
2023/07/04 02:54:04;;;;;;;8.30;2.42;;;;;;;11.14;100.00;100460.56;4989583;28;20208;-44
2023/07/04 02:56:33;;;;;;;8.77;2.40;;;;;;;11.17;100.00;100467.59;4989613;28;20192;-44
2023/07/04 02:58:59;;;;;;;5.55;2.28;;;;;;;11.08;100.00;100465.34;5001343;28;20243;-45
2023/07/04 03:01:24;;;;;;;8.35;2.05;;;;;;;11.11;100.00;100473.28;5008860;28;20323;-45
2023/07/04 03:03:51;;;;;;;7.85;2.40;;;;;;;11.11;100.00;100468.78;5008733;28;20736;-44
2023/07/04 03:06:17;;;;;;;9.20;2.63;;;;;;;11.11;100.00;100467.91;5008754;28;20654;-47
2023/07/04 03:08:45;;;;;;;10.40;2.55;;;;;;;11.12;100.00;100469.63;5008739;28;20262;-45
2023/07/04 03:11:11;;;;;;;9.30;2.47;;;;;;;11.16;100.00;100473.06;5008835;28;20254;-45
2023/07/04 03:13:37;;;;;;;7.47;2.30;;;;;;;11.09;100.00;100475.16;5009849;28;20713;-49
2023/07/04 03:16:04;;;;;;;6.47;2.28;;;;;;;11.12;100.00;100475.88;5008777;28;20777;-48
2023/07/04 03:18:29;;;;;;;5.82;2.15;;;;;;;11.13;100.00;100474.94;5008600;28;20255;-48
2023/07/04 03:20:55;;;;;;;9.52;2.20;;;;;;;11.11;100.00;100478.63;5008668;28;20562;-46
2023/07/04 03:23:20;;;;;;;6.72;1.75;;;;;;;11.17;100.00;100480.16;5010037;28;20197;-46
2023/07/04 03:25:47;;;;;;;6.53;2.13;;;;;;;11.18;100.00;100480.09;5008437;28;20717;-48
2023/07/04 03:28:14;;;;;;;5.95;2.20;;;;;;;11.19;100.00;100484.50;5008145;28;20323;-45
2023/07/04 03:30:40;;;;;;;6.65;2.30;;;;;;;11.17;100.00;100488.19;4998927;28;20268;-48
2023/07/04 03:33:09;;;;;;;7.18;2.40;;;;;;;11.17;100.00;100486.38;4988821;28;20567;-43
2023/07/04 03:35:38;;;;;;;9.18;2.47;;;;;;;11.23;100.00;100490.59;4989453;28;20178;-45
2023/07/04 03:38:04;;;;;;;10.75;2.95;;;;;;;11.26;100.00;100494.03;4988674;28;20255;-44
2023/07/04 03:40:30;;;;;;;10.95;2.40;;;;;;;11.24;100.00;100489.63;4988395;28;20264;-49
2023/07/04 03:42:56;;;;;;;6.18;2.60;;;;;;;11.36;100.00;100489.06;4989512;28;20441;-44
2023/07/04 03:45:21;;;;;;;11.02;2.47;;;;;;;11.28;100.00;100497.50;4988420;28;20643;-43
2023/07/04 03:47:47;;;;;;;8.63;2.70;;;;;;;11.28;100.00;100493.94;4989815;28;20335;-51
2023/07/04 03:50:13;;;;;;;7.07;1.95;;;;;;;11.30;100.00;100490.25;4987731;28;20671;-44
2023/07/04 03:52:39;;;;;;;8.35;2.80;;;;;;;11.40;100.00;100498.72;4990055;28;20161;-44
2023/07/04 03:55:06;;;;;;;7.90;2.58;;;;;;;11.38;100.00;100500.59;5002448;28;20215;-43
2023/07/04 03:57:31;;;;;;;13.38;3.05;;;;;;;11.39;100.00;100499.69;5007451;28;20197;-45
2023/07/04 03:59:57;;;;;;;10.02;2.83;;;;;;;11.42;100.00;100504.91;4988997;28;20720;-44
2023/07/04 04:02:22;;;;;;;12.75;3.20;;;;;;;11.48;100.00;100512.66;4990029;28;20580;-45
2023/07/04 04:04:48;;;;;;;10.18;3.33;;;;;;;11.50;100.00;100509.88;4989815;28;20230;-49
2023/07/04 04:07:14;;;;;;;7.72;2.80;;;;;;;11.52;100.00;100510.69;4989858;28;20177;-43
2023/07/04 04:09:40;;;;;;;14.13;2.95;;;;;;;11.57;100.00;100511.34;4989489;28;20177;-45
2023/07/04 04:12:07;;;;;;;11.75;2.67;;;;;;;11.54;100.00;100516.84;5009252;28;20287;-43
2023/07/04 04:14:34;;;;;;;4.60;2.50;;;;;;;11.57;100.00;100513.13;5009360;28;20200;-45
2023/07/04 04:16:59;;;;;;;10.65;2.70;;;;;;;11.59;100.00;100508.56;5009502;28;20173;-44
2023/07/04 04:19:26;;;;;;;8.35;2.63;;;;;;;11.63;100.00;100518.22;5007921;28;20238;-50
2023/07/04 04:21:52;;;;;;;8.85;2.50;;;;;;;11.64;100.00;100519.97;5009271;28;20274;-48
2023/07/04 04:24:18;;;;;;;15.48;2.75;;;;;;;11.67;100.00;100514.44;4995444;28;20213;-46
2023/07/04 04:26:46;;;;;;;15.18;3.00;;;;;;;11.72;100.00;100517.81;4989556;28;20655;-47
2023/07/04 04:29:13;;;;;;;11.73;2.50;;;;;;;11.70;100.00;100514.31;4989555;28;20181;-46
2023/07/04 04:31:39;;;;;;;9.38;3.08;;;;;;;11.66;100.00;100520.78;4989609;28;20559;-45
2023/07/04 04:34:06;;;;;;;13.43;3.03;;;;;;;11.64;100.00;100523.53;4989528;28;20618;-45
2023/07/04 04:36:33;;;;;;;13.00;3.13;;;;;;;11.68;100.00;100537.69;4989665;28;20664;-46
2023/07/04 04:38:59;;;;;;;9.20;2.92;;;;;;;11.68;100.00;100526.94;4988115;28;20208;-48
2023/07/04 04:41:26;;;;;;;10.40;2.58;;;;;;;11.75;100.00;100531.94;4989327;28;20266;-46
2023/07/04 04:43:53;;;;;;;8.45;2.78;;;;;;;11.82;100.00;100537.00;4989359;28;20194;-44
2023/07/04 04:46:18;;;;;;;7.97;2.95;;;;;;;11.87;100.00;100533.19;4990084;28;20180;-49
2023/07/04 04:48:44;;;;;;;10.05;2.78;;;;;;;11.91;100.00;100531.22;5010693;28;20310;-45
2023/07/04 04:51:12;;;;;;;6.78;2.63;;;;;;;12.02;100.00;100533.38;5008346;28;20205;-46
2023/07/04 04:53:40;;;;;;;9.45;2.95;;;;;;;12.08;100.00;100542.00;4993302;28;20502;-46
2023/07/04 04:56:07;;;;;;;9.88;2.90;;;;;;;12.13;100.00;100544.47;4993051;28;20195;-46
2023/07/04 04:58:33;;;;;;;14.02;3.10;;;;;;;12.11;100.00;100549.03;4993219;28;20177;-44
2023/07/04 05:01:25;;;;;;;7.45;2.60;;;;;;;12.18;100.00;100553.19;4993141;28;20199;-46
2023/07/04 05:03:53;;;;;;;7.78;2.80;;;;;;;12.23;100.00;100540.38;4991780;28;20214;-45
2023/07/04 05:06:20;;;;;;;11.18;2.90;;;;;;;12.25;100.00;100551.94;4992955;28;20182;-44
2023/07/04 05:08:46;;;;;;;8.93;2.65;;;;;;;12.39;100.00;100566.50;4993181;28;20188;-45
2023/07/04 05:11:13;;;;;;;9.77;2.70;;;;;;;12.55;100.00;100568.34;4992954;28;20518;-44
2023/07/04 05:13:40;;;;;;;8.65;3.00;;;;;;;12.70;100.00;100553.25;4992723;28;20772;-48
2023/07/04 05:16:09;;;;;;;10.95;2.25;;;;;;;12.76;100.00;100544.84;5004701;28;20184;-46
2023/07/04 05:18:36;;;;;;;9.88;2.40;;;;;;;12.68;100.00;100551.56;5012698;28;20738;-45
2023/07/04 05:21:04;;;;;;;9.30;2.10;;;;;;;12.73;100.00;100546.84;5012448;28;20539;-44
2023/07/04 05:23:33;;;;;;;9.20;2.58;;;;;;;12.60;100.00;100551.09;5012127;28;20310;-45
2023/07/04 05:26:04;;;;;;;11.73;2.15;;;;;;;12.50;100.00;100543.50;5012621;28;20173;-44
2023/07/04 05:28:30;;;;;;;12.93;2.30;;;;;;;12.52;100.00;100551.47;4996850;28;20185;-46
2023/07/04 05:31:00;;;;;;;12.98;2.50;;;;;;;12.56;100.00;100540.50;5003280;28;20177;-46
2023/07/04 05:33:27;;;;;;;9.23;2.13;;;;;;;12.77;100.00;100535.84;5012177;28;20295;-47
2023/07/04 05:36:21;;;;;;;9.35;1.98;;;;;;;12.82;100.00;100532.91;5012211;28;20184;-45
2023/07/04 05:38:49;;;;;;;9.20;2.10;;;;;;;13.07;100.00;100539.69;5011638;28;20188;-46
2023/07/04 05:41:16;;;;;;;11.05;2.30;;;;;;;13.11;100.00;100530.50;5011796;28;20643;-46
2023/07/04 05:43:43;;;;;;;9.88;2.38;;;;;;;13.09;100.00;100535.94;5011935;28;20212;-45
2023/07/04 05:46:10;;;;;;;6.63;1.83;;;;;;;13.24;100.00;100536.09;5011901;28;20246;-51
2023/07/04 05:48:36;;;;;;;5.65;1.80;;;;;;;13.38;100.00;100536.22;5010454;28;20651;-43
2023/07/04 05:51:04;;;;;;;9.18;2.30;;;;;;;13.47;100.00;100535.75;5011689;28;20180;-45
2023/07/04 05:53:32;;;;;;;6.10;2.47;;;;;;;13.68;100.00;100546.25;5011084;28;20208;-45
2023/07/04 05:56:05;;;;;;;8.82;2.35;;;;;;;13.54;100.00;100542.50;4994300;28;20197;-44
2023/07/04 05:58:30;;;;;;;11.43;2.10;;;;;;;13.14;100.00;100552.72;4990983;28;20556;-45
2023/07/04 06:00:59;;;;;;;13.10;2.25;;;;;;;12.99;100.00;100554.41;4991919;28;20189;-45
2023/07/04 06:03:26;;;;;;;12.25;2.55;;;;;;;12.60;100.00;100553.78;4991692;28;20223;-44
2023/07/04 06:05:52;;;;;;;12.23;2.72;;;;;;;12.53;100.00;100564.84;4991832;28;20191;-47
2023/07/04 06:08:17;;;;;;;12.48;2.90;;;;;;;12.48;100.00;100564.19;4991873;28;20452;-44
2023/07/04 06:10:43;;;;;;;10.07;2.55;;;;;;;12.39;100.00;100567.34;4991993;28;20715;-43
2023/07/04 06:13:08;;;;;;;13.10;2.65;;;;;;;12.52;100.00;100571.16;4991756;28;20672;-49
2023/07/04 06:15:40;;;;;;;7.72;2.50;;;;;;;12.80;100.00;100567.06;4991526;28;20260;-45
2023/07/04 06:18:06;;;;;;;11.23;2.45;;;;;;;12.97;100.00;100576.97;4991979;28;20542;-44
2023/07/04 06:20:31;;;;;;;9.23;2.67;;;;;;;13.31;100.00;100573.34;4991478;28;20272;-45
2023/07/04 06:22:57;;;;;;;11.15;3.17;;;;;;;13.66;100.00;100577.78;4991090;28;20197;-44
2023/07/04 06:25:22;;;;;;;13.45;2.92;;;;;;;13.76;100.00;100577.19;4991460;28;20193;-45
2023/07/04 06:27:48;;;;;;;10.52;2.47;;;;;;;13.89;100.00;100590.84;4991356;28;20169;-45
2023/07/04 06:30:13;;;;;;;9.13;2.40;;;;;;;14.00;100.00;100576.78;4991618;28;20702;-45
2023/07/04 06:32:39;;;;;;;7.18;1.85;;;;;;;14.35;100.00;100579.28;4991416;28;20668;-43
2023/07/04 06:35:05;;;;;;;7.55;2.53;;;;;;;14.37;100.00;100574.66;4991495;28;20304;-43
2023/07/04 06:37:30;;;;;;;6.65;1.98;;;;;;;14.42;100.00;100586.91;4991245;28;20248;-43
2023/07/04 06:39:56;;;;;;;7.15;1.95;;;;;;;14.63;100.00;100576.72;4991304;28;20228;-50
2023/07/04 06:42:21;;;;;;;8.98;2.05;;;;;;;14.55;100.00;100575.44;4991044;28;20611;-47
2023/07/04 06:44:51;;;;;;;6.93;1.98;;;;;;;14.39;100.00;100578.16;4991111;28;20197;-44
2023/07/04 06:47:16;;;;;;;5.55;1.80;;;;;;;14.22;100.00;100584.50;4991226;28;20638;-44
2023/07/04 06:49:41;;;;;;;8.68;1.95;;;;;;;13.91;100.00;100593.47;5007007;28;20189;-43
2023/07/04 06:52:07;;;;;;;9.63;2.38;;;;;;;14.22;100.00;100593.44;4990957;28;20177;-43
2023/07/04 06:54:32;;;;;;;4.95;2.00;;;;;;;14.10;100.00;100582.50;5009888;23;20188;-43
2023/07/04 06:57:02;;;;;;;12.88;2.53;;;;;;;13.88;100.00;100591.78;5010897;28;20196;-41
2023/07/04 06:59:28;;;;;;;8.95;1.75;;;;;;;13.51;100.00;100588.47;5011100;28;20189;-41
2023/07/04 07:01:53;;;;;;;7.88;1.80;;;;;;;14.15;100.00;100583.13;5010916;28;20196;-40
2023/07/04 07:04:19;;;;;;;6.47;1.60;;;;;;;14.61;100.00;100584.03;5009771;28;20204;-43
2023/07/04 07:06:44;;;;;;;7.35;1.50;;;;;;;14.77;100.00;100599.31;5011128;28;20172;-41
2023/07/04 07:09:10;;;;;;;6.10;1.45;;;;;;;15.02;100.00;100585.22;5010968;28;20243;-41
2023/07/04 07:11:35;;;;;;;5.28;1.70;;;;;;;15.36;100.00;100583.16;5010255;28;20179;-44
2023/07/04 07:14:01;;;;;;;4.88;1.45;;;;;;;15.77;100.00;100583.28;5009956;28;20209;-41
2023/07/04 07:16:26;;;;;;;4.20;1.55;;;;;;;15.73;100.00;100564.66;5009801;28;20172;-42
2023/07/04 07:18:54;;;;;;;4.88;1.38;;;;;;;15.94;100.00;100573.19;5009680;28;20176;-43
2023/07/04 07:21:24;;;;;;;5.88;1.85;;;;;;;15.96;100.00;100566.75;5009748;28;20529;-41
2023/07/04 07:23:51;;;;;;;7.97;1.85;;;;;;;15.97;100.00;100570.31;5010150;28;20294;-42
2023/07/04 07:26:20;;;;;;;6.20;1.80;;;;;;;16.41;100.00;100574.63;5010377;28;20702;-42
2023/07/04 07:28:46;;;;;;;3.53;1.17;;;;;;;16.68;100.00;100577.31;5010362;28;20177;-41
2023/07/04 07:31:16;;;;;;;7.90;1.95;;;;;;;16.73;100.00;100569.75;5010903;28;20183;-41
2023/07/04 07:33:46;;;;;;;7.30;1.63;;;;;;;16.52;99.31;100568.50;5010434;28;20214;-41
2023/07/04 07:36:22;;;;;;;10.88;1.90;;;;;;;16.71;97.35;100574.41;5010408;28;20196;-41
2023/07/04 07:38:49;;;;;;;7.90;1.70;;;;;;;16.53;92.61;100564.81;5010486;28;20168;-43
2023/07/04 07:41:15;;;;;;;7.03;1.80;;;;;;;15.73;90.53;100560.13;5010234;28;20235;-42
2023/07/04 07:43:42;;;;;;;7.93;1.70;;;;;;;15.48;89.99;100563.50;5010124;28;20200;-42
2023/07/04 07:46:16;;;;;;;5.53;1.70;;;;;;;15.07;89.94;100571.47;5010100;28;20188;-42
2023/07/04 07:48:42;;;;;;;6.10;1.90;;;;;;;14.67;91.30;100584.63;5010679;28;20700;-43
2023/07/04 07:51:10;;;;;;;2.85;1.40;;;;;;;14.91;92.72;100579.59;5010259;28;20669;-44
2023/07/04 07:53:37;;;;;;;6.28;1.63;;;;;;;15.30;93.32;100570.88;5009940;28;20416;-41
2023/07/04 07:56:04;;;;;;;4.57;1.48;;;;;;;16.16;93.16;100578.06;5010165;28;20562;-43
2023/07/04 07:58:29;;;;;;;4.60;1.55;;;;;;;16.54;91.03;100577.38;5010111;28;20165;-42
2023/07/04 08:00:55;;;;;;;5.47;1.63;;;;;;;16.51;90.64;100580.28;5010247;28;20173;-42
2023/07/04 08:03:20;;;;;;;6.38;1.60;;;;;;;16.25;90.58;100583.75;5010086;28;20238;-43
2023/07/04 08:05:46;;;;;;;4.63;1.55;;;;;;;16.85;89.31;100596.00;5009951;28;20230;-43
2023/07/04 08:08:12;;;;;;;7.80;1.90;;;;;;;16.62;87.71;100575.91;5010098;28;20337;-42
2023/07/04 08:10:39;;;;;;;7.97;1.70;;;;;;;16.73;87.04;100583.28;5009974;28;20207;-41
2023/07/04 08:13:06;;;;;;;6.28;1.73;;;;;;;17.14;85.68;100579.56;5009963;28;20169;-43
2023/07/04 08:15:31;;;;;;;9.20;2.38;;;;;;;17.33;84.84;100587.28;5008956;28;20160;-41
2023/07/04 08:18:05;;;;;;;5.57;1.88;;;;;;;17.71;84.02;100571.03;5010097;28;20652;-42
2023/07/04 08:20:31;;;;;;;5.07;1.75;;;;;;;17.54;82.44;100571.38;5009983;28;20184;-42
2023/07/04 08:22:57;;;;;;;11.02;1.90;;;;;;;17.87;82.09;100554.53;5013437;28;20192;-43
2023/07/04 08:25:22;;;;;;;4.30;1.70;;;;;;;17.99;80.49;100551.91;5012631;28;20268;-42
2023/07/04 08:27:48;;;;;;;8.38;1.92;;;;;;;18.23;78.71;100544.66;5013323;28;20173;-42
2023/07/04 08:30:14;;;;;;;6.88;2.20;;;;;;;18.06;77.15;100539.63;5013266;28;20207;-42
2023/07/04 08:32:39;;;;;;;7.60;2.30;;;;;;;18.00;76.60;100551.78;5011968;28;20175;-41
2023/07/04 08:35:05;;;;;;;12.93;1.92;;;;;;;18.44;74.84;100549.44;5013277;28;20280;-42
2023/07/04 08:37:31;;;;;;;4.68;1.80;;;;;;;18.34;73.37;100530.28;5013605;28;20219;-43
2023/07/04 08:39:57;;;;;;;6.03;1.73;;;;;;;18.20;72.85;100525.91;5013989;28;20180;-39
2023/07/04 08:42:26;;;;;;;13.77;1.88;;;;;;;18.50;72.07;100538.13;5013057;28;20685;-41
2023/07/04 08:44:54;;;;;;;5.20;1.50;;;;;;;18.06;72.55;100534.19;5012910;28;20204;-42
2023/07/04 08:47:25;;;;;;;10.75;2.08;;;;;;;18.10;72.66;100541.13;5013058;28;20168;-42
2023/07/04 08:49:56;;;;;;;5.78;1.92;;;;;;;18.05;72.08;100535.19;5011513;28;20165;-41
2023/07/04 08:52:39;;;;;;;10.52;1.90;;;;;;;18.57;70.88;100533.97;5012991;28;20180;-41
2023/07/04 08:55:10;;;;;;;11.65;2.50;;;;;;;18.97;69.46;100533.63;5012595;28;20251;-42
2023/07/04 08:57:42;;;;;;;17.08;2.40;;;;;;;19.03;68.44;100537.72;5012916;28;20161;-41
2023/07/04 09:00:13;;;;;;;8.93;1.80;;;;;;;17.90;68.34;100524.47;5013029;28;20181;-42
2023/07/04 09:03:03;;;;;;;6.20;1.85;;;;;;;17.81;68.87;100541.41;5012489;28;20192;-41
2023/07/04 09:05:51;;;;;;;5.53;1.73;;;;;;;16.99;72.74;100575.22;5012472;28;20207;-42
2023/07/04 09:08:34;;;;;;;9.57;2.38;;;;;;;16.76;75.24;100607.41;5010901;28;20173;-41
2023/07/04 09:11:05;;;;;;;5.38;1.77;;;;;;;16.50;75.25;100619.97;5011013;28;20165;-42
2023/07/04 09:13:38;;;;;;;9.15;2.40;;;;;;;16.37;75.99;100625.31;5011942;28;20204;-42
2023/07/04 09:16:14;;;;;;;7.93;1.90;;;;;;;16.31;76.02;100620.34;5012320;28;20297;-43
2023/07/04 09:19:02;;;;;;;9.68;1.98;;;;;;;16.31;76.43;100631.16;5012327;28;20231;-42
2023/07/04 09:21:30;;;;;;;8.35;2.13;;;;;;;16.02;76.93;100633.03;5012233;28;20266;-43
2023/07/04 09:24:04;;;;;;;5.63;1.67;;;;;;;16.06;77.71;100648.09;5012031;28;20205;-43
2023/07/04 09:26:55;;;;;;;7.65;1.80;;;;;;;15.80;77.52;100638.94;5012638;28;20161;-42
2023/07/04 09:29:23;;;;;;;3.95;1.60;;;;;;;16.17;77.25;100639.28;5012675;28;20627;-42
2023/07/04 09:31:58;;;;;;;6.15;1.50;;;;;;;17.12;77.25;100640.22;5012184;28;20627;-45
2023/07/04 09:34:40;;;;;;;7.70;1.80;;;;;;;17.05;75.49;100637.97;5011036;28;20315;-41
2023/07/04 09:37:10;;;;;;;3.63;1.33;;;;;;;17.61;74.65;100640.38;5010829;28;20181;-42
2023/07/04 09:39:57;;;;;;;5.88;1.63;;;;;;;17.83;72.50;100631.63;5012321;28;20596;-42
2023/07/04 09:42:32;;;;;;;4.40;1.60;;;;;;;17.55;72.39;100634.53;5011988;28;20592;-42
2023/07/04 09:45:05;;;;;;;4.88;1.45;;;;;;;17.16;72.44;100641.75;5010707;28;20204;-44
2023/07/04 09:47:32;;;;;;;2.15;1.17;;;;;;;16.82;73.35;100638.66;5012532;28;20488;-42
2023/07/04 09:50:14;;;;;;;5.60;1.42;;;;;;;16.65;74.00;100645.16;5011703;28;20235;-42
2023/07/04 09:52:41;;;;;;;2.95;1.38;;;;;;;16.95;74.54;100655.78;5012568;28;20241;-43
2023/07/04 09:55:14;;;;;;;3.15;1.33;;;;;;;17.57;73.46;100644.28;5011712;28;20239;-43
2023/07/04 09:57:40;;;;;;;4.13;1.50;;;;;;;18.05;73.24;100632.78;5011899;28;20161;-43
2023/07/04 10:00:16;;;;;;;3.25;1.40;;;;;;;18.04;72.56;100648.19;5011840;28;20173;-41
2023/07/04 10:02:43;;;;;;;4.70;1.40;;;;;;;17.49;72.58;100634.00;5011811;28;20666;-42
2023/07/04 10:05:10;;;;;;;4.22;1.40;;;;;;;17.22;73.65;100652.16;5011754;28;20282;-43
2023/07/04 10:07:37;;;;;;;4.63;1.60;;;;;;;16.76;74.87;100639.88;5011783;28;20517;-42
2023/07/04 10:10:07;;;;;;;5.53;1.45;;;;;;;16.77;74.67;100649.75;5011827;28;20203;-42
2023/07/04 10:12:45;;;;;;;6.13;1.40;;;;;;;16.37;75.16;100648.81;5011788;28;20165;-44
2023/07/04 10:15:23;;;;;;;3.65;1.48;;;;;;;16.31;75.29;100669.00;5011518;28;20228;-45
2023/07/04 10:17:51;;;;;;;2.60;1.23;;;;;;;16.20;74.82;100658.00;5011670;28;20176;-42
2023/07/04 10:20:17;;;;;;;5.30;1.40;;;;;;;16.38;75.39;100659.53;5011507;28;20168;-42
2023/07/04 10:22:52;;;;;;;5.47;1.20;;;;;;;16.50;74.71;100656.97;5011441;28;20548;-42
2023/07/04 10:25:22;;;;;;;4.65;1.13;;;;;;;16.77;73.71;100663.28;5011456;28;20196;-44
2023/07/04 10:28:12;;;;;;;3.47;1.13;;;;;;;16.91;71.33;100646.13;5011678;28;20713;-41
2023/07/04 10:30:39;;;;;;;2.58;1.13;;;;;;;17.09;69.95;100635.88;5010949;28;20157;-42
2023/07/04 10:33:17;;;;;;;2.25;1.15;;;;;;;17.63;68.89;100633.00;5011808;28;20651;-43
2023/07/04 10:35:45;;;;;;;1.98;1.00;;;;;;;17.48;68.03;100626.84;5011338;28;20180;-43
2023/07/04 10:38:32;;;;;;;3.47;1.00;;;;;;;17.84;67.17;100629.78;5011710;28;20258;-42
2023/07/04 10:40:59;;;;;;;3.60;0.88;;;;;;;18.44;66.56;100626.28;5010039;28;20157;-41
2023/07/04 10:43:24;;;;;;;2.63;1.05;;;;;;;18.56;66.66;100616.34;5011383;28;20725;-44
2023/07/04 10:45:53;;;;;;;4.95;1.20;;;;;;;18.66;65.94;100627.38;5010982;28;20258;-43
2023/07/04 10:48:21;;;;;;;4.22;1.10;;;;;;;17.72;66.28;100598.97;5011057;28;20199;-43
2023/07/04 10:50:58;;;;;;;4.07;1.15;;;;;;;17.47;67.08;100622.41;5010959;28;20312;-43
2023/07/04 10:53:24;;;;;;;3.38;0.95;;;;;;;17.05;68.57;100643.38;5010871;28;20550;-44
2023/07/04 10:56:02;;;;;;;2.75;1.13;;;;;;;17.17;69.21;100647.06;5010925;28;20199;-42
2023/07/04 10:58:34;;;;;;;4.57;0.93;;;;;;;16.97;68.96;100653.84;5011310;28;20157;-43
2023/07/04 11:01:11;;;;;;;3.58;1.00;;;;;;;17.34;68.91;100653.13;5010723;28;20697;-43
2023/07/04 11:03:57;;;;;;;4.28;1.20;;;;;;;17.55;69.21;100661.63;5010688;28;20196;-43
2023/07/04 11:06:37;;;;;;;4.30;0.95;;;;;;;17.91;69.13;100664.47;5010993;28;20173;-43
2023/07/04 11:09:07;;;;;;;2.60;1.05;;;;;;;18.00;68.82;100656.66;5010669;28;20183;-43
2023/07/04 11:11:33;;;;;;;2.35;0.88;;;;;;;18.17;69.41;100669.88;5010900;28;20169;-43
2023/07/04 11:14:10;;;;;;;3.35;1.20;;;;;;;18.37;68.16;100657.56;5008951;28;20219;-43
2023/07/04 11:16:40;;;;;;;2.38;1.10;;;;;;;18.61;66.76;100648.56;5010508;28;20179;-42
2023/07/04 11:19:26;;;;;;;4.43;1.15;;;;;;;18.79;65.56;100644.50;5010518;28;20278;-42
2023/07/04 11:22:13;;;;;;;3.75;1.20;;;;;;;18.98;64.55;100627.69;5010279;28;20199;-42
2023/07/04 11:24:44;;;;;;;3.03;0.95;;;;;;;19.05;63.20;100630.78;5010574;28;20199;-43
2023/07/04 11:27:19;;;;;;;6.63;1.67;;;;;;;18.96;62.87;100615.19;5010402;28;20169;-43
2023/07/04 11:29:51;;;;;;;4.75;1.20;;;;;;;19.20;62.10;100616.03;5009020;28;20195;-44
2023/07/04 11:32:25;;;;;;;4.10;1.25;;;;;;;18.91;61.84;100608.28;5010664;28;20177;-42
2023/07/04 11:35:15;;;;;;;3.22;1.10;;;;;;;18.80;61.04;100605.50;5008679;28;20211;-41